Time;durP1;ratioP1;P1;durP2;ratioP2;P2;SDS_P1;SDS_P2;PMS_P1;PMS_P2;Temp;Humidity;BMP_temperature;BMP_pressure;BME280_temperature;BME280_humidity;BME280_pressure;Samples;Min_cycle;Max_cycle;Signal;HPM_P1;HPM_P2
2023/09/02 00:00:50;;;;;;;1.80;0.90;;;;;;;18.13;83.88;99794.28;5095297;28;20148;-61
2023/09/02 00:03:19;;;;;;;0.70;0.70;;;;;;;18.04;83.97;99795.38;5094884;28;20048;-61
2023/09/02 00:05:49;;;;;;;0.50;0.50;;;;;;;18.05;84.06;99806.56;5094898;28;20052;-61
2023/09/02 00:08:18;;;;;;;0.50;0.50;;;;;;;18.04;84.03;99807.47;5094855;28;20044;-61
2023/09/02 00:10:47;;;;;;;0.65;0.65;;;;;;;18.03;84.12;99803.19;5094863;28;20040;-61
2023/09/02 00:13:15;;;;;;;0.73;0.73;;;;;;;17.92;84.10;99802.66;5095050;28;20032;-61
2023/09/02 00:15:45;;;;;;;0.75;0.75;;;;;;;17.86;84.35;99806.25;5094724;28;20043;-61
2023/09/02 00:18:15;;;;;;;1.40;1.13;;;;;;;17.82;84.56;99793.47;5094501;28;20040;-61
2023/09/02 00:20:44;;;;;;;3.17;0.90;;;;;;;17.75;84.57;99791.97;5094663;28;20035;-61
2023/09/02 00:23:13;;;;;;;0.63;0.63;;;;;;;17.70;84.87;99794.66;5093512;28;20406;-61
2023/09/02 00:25:42;;;;;;;0.60;0.60;;;;;;;17.71;84.87;99791.19;5094482;28;20804;-61
2023/09/02 00:28:10;;;;;;;0.70;0.70;;;;;;;17.64;84.80;99799.13;5094509;28;20036;-61
2023/09/02 00:30:40;;;;;;;0.60;0.60;;;;;;;17.60;84.95;99797.53;5094717;28;20123;-61
2023/09/02 00:33:08;;;;;;;0.63;0.63;;;;;;;17.48;84.87;99800.41;5094691;28;20070;-61
2023/09/02 00:35:40;;;;;;;0.57;0.57;;;;;;;17.37;85.17;99798.97;5094873;28;20269;-61
2023/09/02 00:38:09;;;;;;;0.80;0.80;;;;;;;17.39;85.20;99806.69;5093099;28;20064;-61
2023/09/02 00:40:43;;;;;;;0.67;0.67;;;;;;;17.35;85.35;99792.13;5094322;28;20040;-61
2023/09/02 00:43:12;;;;;;;1.50;1.10;;;;;;;17.28;85.42;99791.47;5094207;28;20056;-60
2023/09/02 00:45:41;;;;;;;2.40;1.20;;;;;;;17.31;85.69;99793.97;5093959;28;20543;-61
2023/09/02 00:48:11;;;;;;;0.50;0.50;;;;;;;17.33;85.52;99799.94;5094180;28;20044;-61
2023/09/02 00:50:43;;;;;;;0.60;0.60;;;;;;;17.24;85.43;99791.59;5094025;28;20044;-61
2023/09/02 00:53:11;;;;;;;0.93;0.82;;;;;;;17.20;85.73;99795.97;5093199;28;20406;-61
2023/09/02 00:55:40;;;;;;;0.63;0.60;;;;;;;17.17;85.96;99798.66;5093936;28;20078;-61
2023/09/02 00:58:09;;;;;;;1.20;1.10;;;;;;;17.15;85.70;99795.25;5094226;28;20375;-61
2023/09/02 01:00:39;;;;;;;0.70;0.67;;;;;;;17.13;85.85;99802.16;5093903;28;20123;-61
2023/09/02 01:03:08;;;;;;;;;;;;;;;17.14;85.99;99803.88;5094631;28;20351;-61
2023/09/02 01:05:37;;;;;;;1.40;1.30;;;;;;;17.21;85.79;99800.25;5092696;28;19920;-61
2023/09/02 01:08:08;;;;;;;1.40;1.02;;;;;;;17.31;85.96;99804.28;5094195;28;20436;-61
2023/09/02 01:10:38;;;;;;;0.90;0.90;;;;;;;17.38;85.72;99803.25;5094141;28;20044;-61
2023/09/02 01:13:07;;;;;;;0.65;0.65;;;;;;;17.36;85.68;99810.19;5093837;28;20048;-61
2023/09/02 01:15:36;;;;;;;0.68;0.68;;;;;;;17.36;85.82;99799.00;5092548;28;20048;-61
2023/09/02 01:18:05;;;;;;;1.98;1.27;;;;;;;17.33;85.46;99810.25;5092558;28;20044;-61
2023/09/02 01:20:53;;;;;;;0.65;0.65;;;;;;;17.25;85.50;99814.75;5093701;28;20044;-61
2023/09/02 01:23:45;;;;;;;3.05;0.82;;;;;;;17.28;85.44;99804.38;5093983;28;20147;-61
2023/09/02 01:26:37;;;;;;;2.38;1.38;;;;;;;17.16;85.21;99809.84;5092422;28;20059;-61
2023/09/02 01:29:11;;;;;;;0.55;0.55;;;;;;;17.12;85.53;99818.53;5093625;28;20047;-61
2023/09/02 01:31:41;;;;;;;0.90;0.90;;;;;;;17.19;85.67;99817.50;5093582;28;20059;-61
2023/09/02 01:34:11;;;;;;;0.60;0.60;;;;;;;17.23;85.75;99819.09;5092387;28;20054;-61
2023/09/02 01:36:41;;;;;;;1.27;1.02;;;;;;;17.26;85.45;99826.78;5092366;28;20048;-61
2023/09/02 01:39:13;;;;;;;0.55;0.50;;;;;;;17.27;85.53;99835.38;5093466;28;20044;-61
2023/09/02 01:41:43;;;;;;;0.50;0.50;;;;;;;17.29;85.30;99824.13;5093493;28;20063;-61
2023/09/02 01:44:16;;;;;;;0.55;0.55;;;;;;;17.29;85.38;99826.72;5092614;28;20052;-61
2023/09/02 01:46:46;;;;;;;2.17;1.05;;;;;;;17.33;85.04;99828.31;5093530;28;20156;-61
2023/09/02 01:49:16;;;;;;;0.68;0.68;;;;;;;17.24;85.04;99831.13;5093792;28;20039;-61
2023/09/02 01:51:45;;;;;;;0.95;0.90;;;;;;;17.22;85.23;99822.59;5093688;28;20041;-61
2023/09/02 01:54:14;;;;;;;1.30;1.13;;;;;;;17.16;85.25;99827.88;5093357;28;20044;-60
2023/09/02 01:56:43;;;;;;;0.70;0.70;;;;;;;17.15;85.25;99831.38;5093348;28;20051;-60
2023/09/02 01:59:14;;;;;;;0.60;0.60;;;;;;;17.20;85.54;99836.41;5096505;28;20405;-61
2023/09/02 02:01:43;;;;;;;1.10;0.68;;;;;;;17.07;85.21;99838.44;5096464;28;20036;-61
2023/09/02 02:04:23;;;;;;;1.10;1.00;;;;;;;17.02;85.51;99835.13;5097229;28;20048;-61
2023/09/02 02:07:00;;;;;;;0.60;0.60;;;;;;;16.89;85.67;99849.22;5097220;28;20051;-61
2023/09/02 02:09:36;;;;;;;0.60;0.60;;;;;;;16.88;85.96;99837.19;5096311;28;20040;-61
2023/09/02 02:12:08;;;;;;;4.03;1.42;;;;;;;16.88;86.03;99842.34;5097191;28;20429;-61
2023/09/02 02:14:38;;;;;;;0.77;0.77;;;;;;;16.82;85.88;99852.78;5097059;28;20047;-61
2023/09/02 02:17:08;;;;;;;0.80;0.77;;;;;;;16.73;85.97;99858.16;5097512;28;20378;-61
2023/09/02 02:19:37;;;;;;;0.82;0.73;;;;;;;16.69;86.27;99859.13;5095762;28;20056;-61
2023/09/02 02:22:07;;;;;;;;;;;;;;;16.64;86.79;99848.06;5113421;28;20052;-61
2023/09/02 02:24:35;;;;;;;1.67;0.80;;;;;;;16.64;86.75;99848.91;5095988;28;19993;-61
2023/09/02 02:27:05;;;;;;;1.42;1.17;;;;;;;16.66;87.09;99852.31;5096764;28;20127;-61
2023/09/02 02:29:34;;;;;;;0.60;0.60;;;;;;;16.71;87.42;99844.47;5096725;28;20079;-61
2023/09/02 02:32:05;;;;;;;0.70;0.70;;;;;;;16.80;87.43;99846.81;5096797;28;20387;-61
2023/09/02 02:34:34;;;;;;;0.77;0.75;;;;;;;16.79;87.40;99842.56;5096971;28;20474;-61
2023/09/02 02:37:03;;;;;;;0.50;0.50;;;;;;;16.85;87.82;99837.25;5096580;28;20490;-61
2023/09/02 02:39:32;;;;;;;0.77;0.77;;;;;;;16.94;87.78;99847.34;5096288;28;20406;-61
2023/09/02 02:42:01;;;;;;;1.50;1.17;;;;;;;16.91;87.75;99842.28;5095305;28;20040;-61
2023/09/02 02:44:30;;;;;;;1.85;1.40;;;;;;;16.92;87.81;99838.81;5095306;28;20198;-61
2023/09/02 02:46:59;;;;;;;0.85;0.80;;;;;;;16.94;87.57;99839.59;5095236;28;20044;-61
2023/09/02 02:49:29;;;;;;;0.73;0.73;;;;;;;16.95;87.75;99838.75;5095459;28;20041;-61
2023/09/02 02:52:01;;;;;;;1.13;0.88;;;;;;;16.96;87.88;99831.84;5095431;28;20036;-61
2023/09/02 02:54:31;;;;;;;1.23;0.82;;;;;;;16.89;87.81;99833.75;5096306;28;20086;-60
2023/09/02 02:57:01;;;;;;;1.10;1.00;;;;;;;16.85;87.99;99836.41;5095224;28;20486;-61
2023/09/02 02:59:30;;;;;;;1.83;0.90;;;;;;;16.81;87.94;99830.50;5095019;28;20029;-60
2023/09/02 03:01:59;;;;;;;0.80;0.80;;;;;;;16.80;88.06;99828.78;5096155;28;20042;-61
2023/09/02 03:04:32;;;;;;;0.65;0.65;;;;;;;16.89;88.35;99831.16;5096151;28;20056;-61
2023/09/02 03:07:01;;;;;;;4.28;2.40;;;;;;;16.96;88.35;99827.56;5095038;28;20048;-61
2023/09/02 03:09:30;;;;;;;1.30;1.20;;;;;;;16.98;88.39;99823.19;5096453;28;20044;-61
2023/09/02 03:11:59;;;;;;;0.95;0.95;;;;;;;17.07;88.48;99833.28;5094771;28;20514;-61
2023/09/02 03:14:28;;;;;;;0.57;0.57;;;;;;;17.04;88.32;99832.50;5095052;28;20461;-61
2023/09/02 03:16:58;;;;;;;0.77;0.77;;;;;;;16.98;88.30;99828.34;5096185;28;20056;-60
2023/09/02 03:19:27;;;;;;;0.60;0.60;;;;;;;16.96;88.33;99832.72;5094877;28;20425;-60
2023/09/02 03:21:57;;;;;;;2.43;1.43;;;;;;;17.00;88.36;99826.59;5096085;28;20044;-61
2023/09/02 03:24:25;;;;;;;1.63;1.38;;;;;;;16.98;88.31;99830.09;5094594;28;20272;-61
2023/09/02 03:26:54;;;;;;;0.65;0.65;;;;;;;16.99;88.69;99818.91;5094744;28;20123;-61
2023/09/02 03:29:24;;;;;;;0.75;0.75;;;;;;;17.06;88.41;99830.75;5095634;28;20048;-61
2023/09/02 03:31:53;;;;;;;;;;;;;;;17.06;88.41;99828.19;5096232;28;20482;-60
2023/09/02 03:34:22;;;;;;;1.55;1.05;;;;;;;17.07;88.32;99830.72;5094361;28;19924;-60
2023/09/02 03:36:51;;;;;;;1.40;1.00;;;;;;;17.07;88.25;99833.28;5095760;28;20485;-60
2023/09/02 03:39:21;;;;;;;1.50;1.10;;;;;;;17.12;88.17;99835.75;5093973;28;20301;-61
2023/09/02 03:41:50;;;;;;;0.77;0.70;;;;;;;17.10;87.86;99833.22;5077610;28;20059;-61
2023/09/02 03:44:20;;;;;;;1.13;1.03;;;;;;;17.09;87.78;99826.34;5095262;28;20039;-60
2023/09/02 03:46:49;;;;;;;0.68;0.68;;;;;;;17.06;87.84;99836.72;5094132;28;20083;-61
2023/09/02 03:49:18;;;;;;;1.33;1.00;;;;;;;17.14;87.77;99834.81;5095219;28;20123;-60
2023/09/02 03:51:47;;;;;;;0.73;0.73;;;;;;;17.14;87.44;99831.41;5094293;28;20490;-60
2023/09/02 03:54:16;;;;;;;1.10;1.00;;;;;;;17.20;87.46;99839.81;5094001;28;20040;-60
2023/09/02 03:56:46;;;;;;;0.70;0.70;;;;;;;17.18;87.05;99844.19;5095501;28;20032;-61
2023/09/02 03:59:15;;;;;;;1.05;0.95;;;;;;;17.12;87.15;99841.75;5093797;28;20284;-61
2023/09/02 04:01:44;;;;;;;1.77;0.70;;;;;;;17.06;87.07;99847.06;5094062;28;20065;-61
2023/09/02 04:04:13;;;;;;;0.50;0.50;;;;;;;17.07;87.14;99848.75;5095230;28;20043;-61
2023/09/02 04:06:42;;;;;;;0.60;0.60;;;;;;;17.08;87.13;99845.31;5095239;28;20060;-60
2023/09/02 04:09:10;;;;;;;0.80;0.80;;;;;;;17.08;87.26;99854.78;5095114;28;20605;-60
2023/09/02 04:11:43;;;;;;;0.55;0.55;;;;;;;17.12;87.00;99854.66;5094814;28;20066;-60
2023/09/02 04:14:13;;;;;;;2.47;1.40;;;;;;;17.17;87.25;99855.41;5093551;28;20036;-60
2023/09/02 04:16:42;;;;;;;1.17;0.95;;;;;;;17.20;87.17;99857.06;5094826;28;20044;-60
2023/09/02 04:19:11;;;;;;;0.55;0.47;;;;;;;17.24;87.12;99845.75;5093384;28;20089;-60
2023/09/02 04:21:40;;;;;;;0.70;0.70;;;;;;;17.26;86.79;99851.72;5094362;28;20461;-60
2023/09/02 04:24:09;;;;;;;0.70;0.70;;;;;;;17.29;87.01;99839.59;5095397;28;20105;-60
2023/09/02 04:26:38;;;;;;;0.98;0.93;;;;;;;17.29;87.11;99857.66;5093327;28;20078;-60
2023/09/02 04:29:07;;;;;;;0.80;0.60;;;;;;;17.28;86.95;99863.69;5094464;28;20036;-60
2023/09/02 04:31:38;;;;;;;0.60;0.60;;;;;;;17.29;87.13;99867.13;5094406;28;20077;-60
2023/09/02 04:34:06;;;;;;;0.88;0.88;;;;;;;17.30;87.01;99867.09;5093141;28;20123;-60
2023/09/02 04:36:35;;;;;;;0.60;0.60;;;;;;;17.38;87.15;99866.91;5093155;28;20044;-61
2023/09/02 04:39:06;;;;;;;0.98;0.98;;;;;;;17.37;86.98;99876.38;5092768;28;20059;-61
2023/09/02 04:41:37;;;;;;;1.70;1.00;;;;;;;17.27;87.08;99877.50;5093155;28;20044;-60
2023/09/02 04:44:07;;;;;;;2.08;1.23;;;;;;;17.31;86.94;99881.69;5094479;28;20494;-60
2023/09/02 04:46:38;;;;;;;1.00;0.90;;;;;;;17.38;87.31;99883.25;5094172;28;20113;-60
2023/09/02 04:49:07;;;;;;;0.80;0.80;;;;;;;17.35;87.45;99885.88;5094179;28;20440;-60
2023/09/02 04:51:37;;;;;;;1.85;1.08;;;;;;;17.31;87.25;99876.53;5094072;28;20082;-60
2023/09/02 04:54:08;;;;;;;1.75;0.82;;;;;;;17.27;87.73;99877.50;5094295;28;20371;-61
2023/09/02 04:56:38;;;;;;;;;;;;;;;17.34;87.65;99876.47;5093215;28;20130;-61
2023/09/02 04:59:07;;;;;;;0.70;0.70;;;;;;;17.31;87.63;99879.13;5093930;28;19920;-61
2023/09/02 05:01:36;;;;;;;0.50;0.50;;;;;;;17.20;87.44;99881.09;5093104;28;20478;-61
2023/09/02 05:04:06;;;;;;;0.90;0.85;;;;;;;17.17;87.85;99888.06;5094316;28;20058;-60
2023/09/02 05:06:35;;;;;;;1.85;0.82;;;;;;;17.20;88.20;99888.00;5094326;28;20119;-60
2023/09/02 05:09:05;;;;;;;0.40;0.40;;;;;;;17.21;88.27;99887.97;5093854;28;20478;-60
2023/09/02 05:11:34;;;;;;;0.52;0.52;;;;;;;17.37;88.47;99893.59;5092963;28;20064;-60
2023/09/02 05:14:03;;;;;;;0.60;0.60;;;;;;;17.51;88.52;99890.66;5093811;28;20116;-60
2023/09/02 05:16:34;;;;;;;1.27;1.15;;;;;;;17.60;88.19;99895.63;5093745;28;20083;-60
2023/09/02 05:19:04;;;;;;;2.15;0.82;;;;;;;17.69;88.10;99892.78;5093956;28;20052;-60
2023/09/02 05:21:34;;;;;;;0.80;0.80;;;;;;;17.69;87.48;99895.38;5092529;28;20039;-61
2023/09/02 05:24:04;;;;;;;13.77;1.20;;;;;;;17.72;87.53;99895.31;5093695;28;20060;-61
2023/09/02 05:26:35;;;;;;;1.10;1.00;;;;;;;17.80;87.65;99904.53;5092721;28;20478;-61
2023/09/02 05:29:05;;;;;;;1.48;1.27;;;;;;;17.83;87.47;99898.44;5094221;28;20048;-61
2023/09/02 05:31:34;;;;;;;1.05;0.68;;;;;;;17.85;87.52;99897.50;5093594;28;20119;-61
2023/09/02 05:34:03;;;;;;;0.82;0.82;;;;;;;17.87;87.35;99900.06;5097408;28;20105;-61
2023/09/02 05:36:34;;;;;;;5.45;0.98;;;;;;;17.88;87.06;99907.78;5098070;28;20046;-61
2023/09/02 05:39:04;;;;;;;0.88;0.88;;;;;;;17.97;86.98;99911.84;5097439;28;20048;-61
2023/09/02 05:41:32;;;;;;;0.57;0.57;;;;;;;18.02;86.77;99913.41;5097712;28;20493;-60
2023/09/02 05:44:01;;;;;;;1.13;1.02;;;;;;;18.07;86.67;99915.84;5097657;28;20032;-61
2023/09/02 05:46:30;;;;;;;1.03;0.93;;;;;;;18.01;86.71;99914.31;5097872;28;20040;-61
2023/09/02 05:48:59;;;;;;;2.25;1.08;;;;;;;18.00;86.69;99916.91;5097545;28;20363;-61
2023/09/02 05:51:29;;;;;;;0.60;0.60;;;;;;;18.01;86.64;99913.47;5097840;28;20127;-61
2023/09/02 05:54:00;;;;;;;1.77;1.10;;;;;;;18.03;86.60;99920.28;5097801;28;20507;-61
2023/09/02 05:56:31;;;;;;;0.82;0.77;;;;;;;18.08;86.51;99915.00;5097424;28;20051;-61
2023/09/02 05:59:00;;;;;;;1.10;1.00;;;;;;;18.15;86.45;99924.25;5097403;28;20048;-61
2023/09/02 06:01:29;;;;;;;0.70;0.70;;;;;;;18.29;86.27;99919.56;5097225;28;20050;-61
2023/09/02 06:03:59;;;;;;;1.40;1.25;;;;;;;18.46;86.16;99919.97;5097525;28;20275;-61
2023/09/02 06:06:28;;;;;;;1.50;1.27;;;;;;;18.59;85.98;99923.03;5097161;28;20040;-61
2023/09/02 06:09:01;;;;;;;3.63;1.10;;;;;;;18.68;85.67;99922.75;5097602;28;20052;-61
2023/09/02 06:11:31;;;;;;;5.65;0.95;;;;;;;18.81;85.13;99918.06;5097151;28;20044;-61
2023/09/02 06:14:00;;;;;;;2.10;1.20;;;;;;;18.90;84.74;99912.63;5097044;28;20059;-61
2023/09/02 06:16:28;;;;;;;1.00;0.90;;;;;;;19.00;84.26;99924.38;5096974;28;20037;-61
2023/09/02 06:18:57;;;;;;;1.58;1.42;;;;;;;19.10;83.99;99920.63;5096969;28;20047;-61
2023/09/02 06:21:26;;;;;;;0.70;0.70;;;;;;;19.23;83.65;99919.31;5096831;28;20130;-61
2023/09/02 06:23:55;;;;;;;1.05;1.00;;;;;;;19.34;83.08;99920.66;5097209;28;20432;-61
2023/09/02 06:26:26;;;;;;;1.23;1.07;;;;;;;19.45;82.44;99930.72;5097162;28;20032;-61
2023/09/02 06:28:55;;;;;;;0.95;0.82;;;;;;;19.58;82.10;99934.56;5097047;28;20126;-61
2023/09/02 06:31:24;;;;;;;1.77;1.23;;;;;;;19.65;81.49;99936.06;5096718;28;20044;-61
2023/09/02 06:33:54;;;;;;;0.90;0.88;;;;;;;19.70;81.43;99928.97;5096760;28;20048;-61
2023/09/02 06:36:23;;;;;;;1.20;1.00;;;;;;;19.70;81.27;99923.78;5096593;28;20036;-61
2023/09/02 06:38:52;;;;;;;1.55;1.13;;;;;;;19.68;80.68;99928.19;5096556;28;20135;-61
2023/09/02 06:41:21;;;;;;;1.17;0.95;;;;;;;19.72;80.59;99932.38;5096454;28;20048;-61
2023/09/02 06:43:52;;;;;;;0.75;0.75;;;;;;;19.81;80.58;99936.41;5096407;28;20040;-61
2023/09/02 06:46:22;;;;;;;2.08;1.05;;;;;;;19.81;80.39;99932.06;5096793;28;20067;-61
2023/09/02 06:48:53;;;;;;;0.75;0.75;;;;;;;19.86;80.06;99945.72;5096736;28;20401;-61
2023/09/02 06:51:22;;;;;;;1.08;0.90;;;;;;;19.92;79.78;99935.13;5096510;28;20044;-61
2023/09/02 06:53:51;;;;;;;1.25;0.93;;;;;;;19.95;79.62;99940.22;5096302;28;20494;-61
2023/09/02 06:56:20;;;;;;;0.77;0.77;;;;;;;20.02;79.27;99946.88;5096306;28;20043;-61
2023/09/02 06:58:49;;;;;;;1.02;0.93;;;;;;;20.07;79.29;99946.72;5096184;28;20040;-61
2023/09/02 07:01:22;;;;;;;1.70;0.65;;;;;;;20.13;78.99;99945.66;5096465;28;20390;-61
2023/09/02 07:03:55;;;;;;;1.10;1.00;;;;;;;20.21;78.52;99946.22;5096107;28;20048;-61
2023/09/02 07:06:24;;;;;;;0.95;0.85;;;;;;;20.25;78.33;99948.66;5096458;28;20404;-61
2023/09/02 07:08:53;;;;;;;0.60;0.60;;;;;;;20.29;78.27;99946.81;5096673;28;20048;-61
2023/09/02 07:11:22;;;;;;;1.15;1.05;;;;;;;20.33;77.98;99951.00;5095915;28;20044;-61
2023/09/02 07:13:52;;;;;;;0.90;0.90;;;;;;;20.35;77.56;99950.03;5095949;28;20044;-61
2023/09/02 07:16:22;;;;;;;1.55;0.77;;;;;;;20.35;77.50;99952.63;5095912;28;20052;-61
2023/09/02 07:18:51;;;;;;;0.57;0.57;;;;;;;20.46;77.70;99960.03;5096213;28;20040;-61
2023/09/02 07:21:22;;;;;;;1.35;1.25;;;;;;;20.63;77.20;99950.72;5096002;28;20505;-62
2023/09/02 07:23:52;;;;;;;0.82;0.77;;;;;;;20.79;76.39;99951.00;5095969;28;20099;-62
2023/09/02 07:26:27;;;;;;;0.80;0.80;;;;;;;20.95;76.13;99952.09;5095745;28;20044;-62
2023/09/02 07:28:56;;;;;;;1.13;0.70;;;;;;;21.10;75.88;99948.94;5095666;28;20051;-62
2023/09/02 07:31:26;;;;;;;0.60;0.60;;;;;;;21.22;75.22;99950.19;5095962;28;20123;-62
2023/09/02 07:33:55;;;;;;;0.55;0.55;;;;;;;21.33;75.02;99943.66;5095839;28;20062;-62
2023/09/02 07:36:24;;;;;;;3.30;0.90;;;;;;;21.43;74.27;99938.94;5095429;28;20036;-62
2023/09/02 07:38:53;;;;;;;0.60;0.60;;;;;;;21.58;74.08;99945.25;5095339;28;20047;-62
2023/09/02 07:41:22;;;;;;;0.60;0.60;;;;;;;21.69;73.81;99950.88;5095534;28;20036;-61
2023/09/02 07:43:51;;;;;;;1.23;0.95;;;;;;;21.76;73.50;99952.31;5095359;28;20033;-62
2023/09/02 07:46:20;;;;;;;0.60;0.60;;;;;;;21.79;73.42;99958.19;5095553;28;20135;-62
2023/09/02 07:48:51;;;;;;;0.80;0.80;;;;;;;21.90;73.15;99955.19;5095303;28;20032;-61
2023/09/02 07:51:20;;;;;;;0.82;0.82;;;;;;;22.01;73.00;99958.19;5095292;28;20040;-62
2023/09/02 07:53:48;;;;;;;1.08;1.00;;;;;;;22.14;72.49;99951.53;5095415;28;20040;-62
2023/09/02 07:56:17;;;;;;;0.85;0.85;;;;;;;22.23;72.21;99948.53;5094237;28;20127;-62
2023/09/02 07:58:48;;;;;;;1.08;0.98;;;;;;;22.38;71.81;99958.28;5095084;28;20052;-62
2023/09/02 08:01:17;;;;;;;0.88;0.82;;;;;;;22.46;71.32;99948.34;5095246;28;20405;-62
2023/09/02 08:03:46;;;;;;;3.22;0.80;;;;;;;22.44;70.50;99957.97;5094931;28;20127;-62
2023/09/02 08:06:16;;;;;;;0.75;0.70;;;;;;;22.48;70.34;99951.72;5094990;28;20066;-62
2023/09/02 08:08:45;;;;;;;0.60;0.60;;;;;;;22.60;70.18;99948.56;5094809;28;20074;-62
2023/09/02 08:11:17;;;;;;;0.50;0.50;;;;;;;22.65;69.92;99954.44;5095017;28;20067;-62
2023/09/02 08:13:47;;;;;;;1.08;0.85;;;;;;;22.78;69.55;99956.47;5095155;28;20126;-62
2023/09/02 08:16:16;;;;;;;0.88;0.77;;;;;;;22.88;68.99;99957.75;5094785;28;20123;-62
2023/09/02 08:18:45;;;;;;;0.45;0.45;;;;;;;22.93;69.16;99955.78;5094992;28;20040;-62
2023/09/02 08:21:14;;;;;;;1.77;1.33;;;;;;;23.04;69.01;99954.34;5094460;28;20043;-62
2023/09/02 08:23:44;;;;;;;0.47;0.47;;;;;;;23.13;68.69;99955.69;5094641;28;20097;-62
2023/09/02 08:26:14;;;;;;;0.90;0.70;;;;;;;23.27;68.65;99961.09;5094831;28;20048;-62
2023/09/02 08:28:44;;;;;;;0.50;0.50;;;;;;;23.44;68.49;99962.91;5094716;28;20044;-62
2023/09/02 08:31:19;;;;;;;0.57;0.57;;;;;;;23.59;68.47;99968.19;5095111;28;20035;-62
2023/09/02 08:33:48;;;;;;;0.43;0.43;;;;;;;23.77;68.59;99966.47;5094390;28;20040;-62
2023/09/02 08:36:18;;;;;;;1.40;1.05;;;;;;;23.91;67.86;99970.06;5094609;28;20417;-62
2023/09/02 08:38:48;;;;;;;0.93;0.90;;;;;;;23.92;67.19;99971.72;5092828;28;20090;-62
2023/09/02 08:41:25;;;;;;;0.65;0.57;;;;;;;24.00;66.98;99974.81;5094216;28;20044;-62
2023/09/02 08:43:55;;;;;;;0.50;0.50;;;;;;;24.10;66.55;99977.81;5094647;28;20048;-62
2023/09/02 08:46:27;;;;;;;0.60;0.60;;;;;;;24.19;66.01;99979.09;5094242;28;20414;-62
2023/09/02 08:48:57;;;;;;;0.80;0.80;;;;;;;24.20;65.62;99975.56;5094776;28;20067;-62
2023/09/02 08:51:27;;;;;;;0.73;0.73;;;;;;;24.22;65.13;99973.72;5094416;28;20127;-62
2023/09/02 08:54:00;;;;;;;0.40;0.40;;;;;;;24.32;65.29;99975.78;5094076;28;20094;-62
2023/09/02 08:56:30;;;;;;;1.23;0.65;;;;;;;24.46;64.69;99977.66;5094095;28;20055;-62
2023/09/02 08:58:59;;;;;;;2.50;1.00;;;;;;;24.38;64.07;99972.00;5094237;28;20048;-62
2023/09/02 09:01:31;;;;;;;0.63;0.63;;;;;;;24.50;64.09;99979.19;5093915;28;20558;-62
2023/09/02 09:04:03;;;;;;;1.10;1.00;;;;;;;24.66;64.19;99980.06;5094397;28;20501;-62
2023/09/02 09:06:36;;;;;;;0.40;0.40;;;;;;;24.80;64.64;99977.59;5094128;28;20040;-62
2023/09/02 09:09:09;;;;;;;0.57;0.57;;;;;;;24.99;63.16;99974.81;5093828;28;20048;-62
2023/09/02 09:11:41;;;;;;;0.90;0.85;;;;;;;25.09;62.43;99978.59;5093719;28;20135;-62
2023/09/02 09:14:17;;;;;;;0.47;0.47;;;;;;;25.12;63.24;99978.44;5093804;28;20094;-62
2023/09/02 09:16:48;;;;;;;0.70;0.70;;;;;;;25.11;63.20;99977.59;5093685;28;20105;-62
2023/09/02 09:19:19;;;;;;;0.75;0.75;;;;;;;24.98;62.06;99984.41;5093784;28;20040;-62
2023/09/02 09:21:48;;;;;;;0.40;0.40;;;;;;;24.84;61.64;99983.47;5093670;28;20044;-62
2023/09/02 09:24:18;;;;;;;0.50;0.50;;;;;;;24.85;62.18;99980.81;5093829;28;20036;-62
2023/09/02 09:26:49;;;;;;;2.70;0.73;;;;;;;24.90;62.12;99983.16;5093862;28;20043;-62
2023/09/02 09:29:20;;;;;;;0.50;0.50;;;;;;;25.03;61.92;99985.00;5094129;28;20048;-62
2023/09/02 09:31:52;;;;;;;0.40;0.40;;;;;;;25.23;61.36;99983.91;5094167;28;20498;-62
2023/09/02 09:34:21;;;;;;;0.55;0.55;;;;;;;25.37;60.95;99983.97;5093859;28;20048;-62
2023/09/02 09:36:58;;;;;;;0.73;0.73;;;;;;;25.44;60.11;99984.47;5093547;28;20040;-62
2023/09/02 09:39:40;;;;;;;0.60;0.60;;;;;;;25.69;60.91;99976.94;5093270;28;20044;-62
2023/09/02 09:42:12;;;;;;;0.57;0.57;;;;;;;25.87;59.84;99973.25;5093551;28;20500;-62
2023/09/02 09:45:03;;;;;;;0.50;0.50;;;;;;;25.87;59.29;99975.84;5094030;28;20090;-62
2023/09/02 09:47:33;;;;;;;0.50;0.50;;;;;;;25.96;58.22;99978.78;5090000;28;20127;-62
2023/09/02 09:50:14;;;;;;;0.60;0.50;;;;;;;26.07;58.48;99975.53;5093401;28;20102;-62
2023/09/02 09:53:01;;;;;;;0.70;0.70;;;;;;;26.14;58.72;99966.41;5093448;28;20036;-62
2023/09/02 09:55:34;;;;;;;0.60;0.60;;;;;;;26.18;57.85;99959.22;5092245;28;20067;-62
2023/09/02 09:58:05;;;;;;;0.70;0.70;;;;;;;26.17;57.19;99961.00;5093326;28;20040;-62
2023/09/02 10:00:34;;;;;;;0.70;0.70;;;;;;;26.17;57.48;99955.78;5093364;28;20047;-62
2023/09/02 10:03:06;;;;;;;0.80;0.75;;;;;;;26.29;57.82;99959.41;5093315;28;20040;-62
2023/09/02 10:05:35;;;;;;;0.50;0.50;;;;;;;26.48;57.44;99963.44;5093584;28;20135;-62
2023/09/02 10:08:05;;;;;;;0.65;0.65;;;;;;;26.56;57.17;99961.16;5093184;28;20044;-62
2023/09/02 10:10:38;;;;;;;0.40;0.40;;;;;;;26.69;57.21;99957.78;5093330;28;20044;-62
2023/09/02 10:13:07;;;;;;;0.77;0.68;;;;;;;26.73;56.29;99962.75;5093132;28;20040;-62
2023/09/02 10:15:37;;;;;;;0.55;0.55;;;;;;;26.66;56.05;99960.63;5093200;28;20101;-62
2023/09/02 10:18:06;;;;;;;0.50;0.50;;;;;;;26.91;56.62;99956.41;5093787;28;20063;-62
2023/09/02 10:20:38;;;;;;;0.73;0.60;;;;;;;26.83;56.39;99961.25;5096967;28;20046;-62
2023/09/02 10:23:09;;;;;;;0.40;0.40;;;;;;;27.04;56.69;99959.09;5096860;28;20047;-62
2023/09/02 10:25:50;;;;;;;0.60;0.60;;;;;;;27.05;55.83;99966.84;5096894;28;20083;-62
2023/09/02 10:28:26;;;;;;;0.63;0.60;;;;;;;26.81;55.77;99957.91;5097148;28;20046;-62
2023/09/02 10:30:59;;;;;;;0.47;0.47;;;;;;;26.98;55.72;99962.06;5096778;28;20055;-62
2023/09/02 10:33:33;;;;;;;0.50;0.50;;;;;;;27.22;55.31;99957.88;5097406;28;20079;-62
2023/09/02 10:36:07;;;;;;;0.73;0.73;;;;;;;27.36;55.63;99960.44;5096726;28;20044;-62
2023/09/02 10:38:41;;;;;;;0.50;0.50;;;;;;;27.39;54.69;99967.31;5096573;28;20131;-62
2023/09/02 10:41:14;;;;;;;0.60;0.60;;;;;;;27.46;54.38;99961.56;5096655;28;20040;-62
2023/09/02 10:43:46;;;;;;;0.40;0.40;;;;;;;27.24;54.01;99962.09;5096450;28;20048;-62
2023/09/02 10:46:15;;;;;;;0.40;0.40;;;;;;;27.21;55.27;99953.59;5096577;28;20050;-62
2023/09/02 10:48:48;;;;;;;0.52;0.40;;;;;;;27.39;55.75;99967.31;5096392;28;20089;-62
2023/09/02 10:51:17;;;;;;;0.40;0.40;;;;;;;27.65;55.21;99962.03;5096799;28;20044;-62
2023/09/02 10:53:56;;;;;;;;;;;;;;;27.50;53.98;99972.72;5097084;28;20046;-62
2023/09/02 10:56:28;;;;;;;0.68;0.63;;;;;;;27.35;53.36;99966.66;5096377;28;19927;-62
2023/09/02 10:58:59;;;;;;;0.50;0.50;;;;;;;27.27;54.02;99968.91;5095419;28;20409;-62
2023/09/02 11:01:44;;;;;;;1.52;0.73;;;;;;;27.13;53.45;99968.97;5096245;28;20070;-62
2023/09/02 11:04:14;;;;;;;0.52;0.52;;;;;;;26.97;52.16;99965.66;5096166;28;20073;-62
2023/09/02 11:07:04;;;;;;;0.43;0.43;;;;;;;26.82;51.66;99969.22;5096061;28;20059;-62
2023/09/02 11:09:54;;;;;;;0.40;0.40;;;;;;;26.72;52.11;99968.09;5096355;28;20063;-62
2023/09/02 11:12:26;;;;;;;0.50;0.50;;;;;;;26.65;52.89;99961.56;5096240;28;20056;-62
2023/09/02 11:15:16;;;;;;;0.60;0.60;;;;;;;26.65;52.66;99964.16;5095982;28;20130;-62
2023/09/02 11:17:45;;;;;;;0.40;0.40;;;;;;;26.69;53.32;99963.03;5095847;28;20047;-62
2023/09/02 11:20:18;;;;;;;0.40;0.40;;;;;;;26.69;53.22;99970.88;5096140;28;20036;-62
2023/09/02 11:22:53;;;;;;;0.30;0.30;;;;;;;26.69;53.84;99976.13;5095727;28;20371;-62
2023/09/02 11:25:30;;;;;;;0.50;0.50;;;;;;;26.68;54.03;99977.09;5095771;28;20044;-62
2023/09/02 11:28:01;;;;;;;0.32;0.32;;;;;;;26.59;54.83;99974.09;5095724;28;20044;-62
2023/09/02 11:30:31;;;;;;;0.40;0.40;;;;;;;26.51;54.76;99980.75;5094938;28;20052;-62
2023/09/02 11:33:01;;;;;;;0.40;0.40;;;;;;;26.44;54.59;99987.28;5096050;28;20398;-62
2023/09/02 11:35:31;;;;;;;0.30;0.30;;;;;;;26.40;54.48;99977.91;5095664;28;20040;-62
2023/09/02 11:38:01;;;;;;;0.40;0.40;;;;;;;26.33;54.26;99987.09;5095853;28;20044;-62
2023/09/02 11:40:29;;;;;;;0.40;0.40;;;;;;;26.27;54.58;99988.31;5095753;28;20094;-62
2023/09/02 11:43:00;;;;;;;0.40;0.40;;;;;;;26.25;54.85;99990.16;5095690;28;20044;-62
2023/09/02 11:45:33;;;;;;;0.60;0.60;;;;;;;26.25;55.58;99982.31;5095300;28;20044;-62
2023/09/02 11:48:04;;;;;;;0.57;0.45;;;;;;;26.23;55.81;99997.25;5095315;28;20052;-62
2023/09/02 11:50:33;;;;;;;0.50;0.50;;;;;;;26.18;55.46;99988.84;5095685;28;20486;-62